createdAt,value
2019-05-09T00:01:46.978Z,42.86
2019-05-09T00:04:09.895Z,42.86
2019-05-09T00:06:33.811Z,42.85
2019-05-09T00:08:54.938Z,42.84
2019-05-09T00:11:16.805Z,42.83
2019-05-09T00:13:38.878Z,42.83
2019-05-09T00:16:00.806Z,42.83
2019-05-09T00:18:23.381Z,42.83
2019-05-09T00:20:45.163Z,42.83
2019-05-09T00:23:06.830Z,42.83
2019-05-09T00:25:28.338Z,42.83
2019-05-09T00:27:50.583Z,42.83
2019-05-09T00:30:13.861Z,42.85
2019-05-09T00:32:34.380Z,42.84
2019-05-09T00:34:56.103Z,42.87
2019-05-09T00:37:18.034Z,42.88
2019-05-09T00:39:40.489Z,42.88
2019-05-09T00:42:04.419Z,42.88
2019-05-09T00:44:26.614Z,42.91
2019-05-09T00:46:47.935Z,42.93
2019-05-09T00:49:10.256Z,42.91
2019-05-09T00:51:33.683Z,42.94
2019-05-09T00:53:54.744Z,42.95
2019-05-09T00:56:16.470Z,42.96
2019-05-09T00:58:38.919Z,42.96
2019-05-09T01:01:00.944Z,42.97
2019-05-09T01:03:23.435Z,42.97
2019-05-09T01:05:47.557Z,42.98
2019-05-09T01:08:09.348Z,42.95
2019-05-09T01:10:31.413Z,42.97
2019-05-09T01:12:54.337Z,42.92
2019-05-09T01:15:15.518Z,42.84
2019-05-09T01:17:37.109Z,42.79
2019-05-09T01:19:58.700Z,42.73
2019-05-09T01:22:20.829Z,42.68
2019-05-09T01:24:44.282Z,42.65
2019-05-09T01:27:06.205Z,42.60
2019-05-09T01:29:27.890Z,42.55
2019-05-09T01:31:50.854Z,42.52
2019-05-09T01:34:13.381Z,42.51
2019-05-09T01:36:34.982Z,42.50
2019-05-09T01:38:56.573Z,42.48
2019-05-09T01:41:28.010Z,42.46
2019-05-09T01:43:41.364Z,42.45
2019-05-09T01:46:03.920Z,42.43
2019-05-09T01:48:26.317Z,42.43
2019-05-09T01:50:48.662Z,42.41
2019-05-09T01:53:10.068Z,42.42
2019-05-09T01:55:31.665Z,42.40
2019-05-09T01:57:53.852Z,42.43
2019-05-09T02:00:15.494Z,42.43
2019-05-09T02:02:37.066Z,42.42
2019-05-09T02:04:58.422Z,42.43
2019-05-09T02:07:19.962Z,42.44
2019-05-09T02:09:43.457Z,42.46
2019-05-09T02:12:05.618Z,42.46
2019-05-09T02:14:26.696Z,42.44
2019-05-09T02:16:48.474Z,42.46
2019-05-09T02:19:10.201Z,42.47
2019-05-09T02:21:34.356Z,42.48
2019-05-09T02:23:55.231Z,42.49
2019-05-09T02:26:17.078Z,42.50
2019-05-09T02:28:38.712Z,42.52
2019-05-09T02:31:00.467Z,42.52
2019-05-09T02:33:25.017Z,42.53
2019-05-09T02:35:52.887Z,42.54
2019-05-09T02:38:09.987Z,42.54
2019-05-09T02:40:31.869Z,42.55
2019-05-09T02:42:53.425Z,42.56
2019-05-09T02:45:15.362Z,42.57
2019-05-09T02:47:38.516Z,42.57
2019-05-09T02:49:59.219Z,42.56
2019-05-09T02:52:20.962Z,42.53
2019-05-09T02:54:42.895Z,42.46
2019-05-09T02:57:04.772Z,42.38
2019-05-09T02:59:29.717Z,42.32
2019-05-09T03:01:50.322Z,42.28
2019-05-09T03:04:12.215Z,42.25
2019-05-09T03:06:34.901Z,42.21
2019-05-09T03:08:59.376Z,42.16
2019-05-09T03:11:19.284Z,42.16
2019-05-09T03:13:40.730Z,42.15
2019-05-09T03:16:02.563Z,42.10
2019-05-09T03:18:23.959Z,42.08
2019-05-09T03:20:45.568Z,42.05
2019-05-09T03:23:09.150Z,42.05
2019-05-09T03:25:30.861Z,42.03
2019-05-09T03:27:52.799Z,42.03
2019-05-09T03:30:14.537Z,42.02
2019-05-09T03:32:38.707Z,42.02
2019-05-09T03:34:59.874Z,42.03
2019-05-09T03:37:21.531Z,42.03
2019-05-09T03:39:42.840Z,42.04
2019-05-09T03:42:04.809Z,42.02
2019-05-09T03:44:28.289Z,42.03
2019-05-09T03:46:50.095Z,42.03
2019-05-09T03:49:11.843Z,42.05
2019-05-09T03:51:33.679Z,42.03
2019-05-09T03:53:57.599Z,42.04
2019-05-09T03:56:19.203Z,42.05
2019-05-09T03:58:41.634Z,42.06
2019-05-09T04:01:03.263Z,42.08
2019-05-09T04:03:24.727Z,42.09
2019-05-09T04:05:56.642Z,42.09
2019-05-09T04:08:10.331Z,42.12
2019-05-09T04:10:32.430Z,42.11
2019-05-09T04:12:59.004Z,42.14
2019-05-09T04:15:19.067Z,42.14
2019-05-09T04:17:40.167Z,42.13
2019-05-09T04:20:01.903Z,42.14
2019-05-09T04:22:23.600Z,42.14
2019-05-09T04:24:47.278Z,42.12
2019-05-09T04:27:07.990Z,42.14
2019-05-09T04:29:29.138Z,42.13
2019-05-09T04:31:51.252Z,42.13
2019-05-09T04:34:12.807Z,42.13
2019-05-09T04:36:34.807Z,42.13
2019-05-09T04:38:57.773Z,42.16
2019-05-09T04:41:24.025Z,42.45
2019-05-09T04:43:42.096Z,42.55
2019-05-09T04:46:05.067Z,42.45
2019-05-09T04:48:28.168Z,42.23
2019-05-09T04:50:49.730Z,40.87
2019-05-09T04:53:11.594Z,40.04
2019-05-09T04:55:33.325Z,39.47
2019-05-09T04:57:57.234Z,39.06
2019-05-09T05:00:18.578Z,39.00
2019-05-09T05:02:40.993Z,39.57
2019-05-09T05:05:02.885Z,39.39
2019-05-09T05:07:24.873Z,38.91
2019-05-09T05:09:48.379Z,38.86
2019-05-09T05:12:09.545Z,38.70
2019-05-09T05:14:31.138Z,38.76
2019-05-09T05:16:55.294Z,38.70
2019-05-09T05:19:17.684Z,38.67
2019-05-09T05:21:39.347Z,38.64
2019-05-09T05:24:01.323Z,38.92
2019-05-09T05:26:23.355Z,39.01
2019-05-09T05:28:47.476Z,39.35
2019-05-09T05:31:08.610Z,39.48
2019-05-09T05:33:30.981Z,39.56
2019-05-09T05:35:52.481Z,39.74
2019-05-09T05:38:13.575Z,38.90
2019-05-09T05:40:43.573Z,39.12
2019-05-09T05:42:58.682Z,39.37
2019-05-09T05:45:19.918Z,39.54
2019-05-09T05:47:42.355Z,39.57
2019-05-09T05:50:04.612Z,39.62
2019-05-09T05:52:27.752Z,39.71
2019-05-09T05:54:48.942Z,39.73
2019-05-09T05:57:10.576Z,39.80
2019-05-09T05:59:32.485Z,39.86
2019-05-09T06:01:54.523Z,39.85
2019-05-09T06:04:18.649Z,39.88
2019-05-09T06:06:39.834Z,39.94
2019-05-09T06:09:01.347Z,39.95
2019-05-09T06:11:22.737Z,40.02
2019-05-09T06:13:54.431Z,40.12
2019-05-09T06:16:08.589Z,40.32
2019-05-09T06:18:30.693Z,39.64
2019-05-09T06:20:52.061Z,39.82
2019-05-09T06:23:14.110Z,40.10
2019-05-09T06:25:38.728Z,40.29
2019-05-09T06:27:59.336Z,40.38
2019-05-09T06:30:21.314Z,40.46
2019-05-09T06:32:42.801Z,40.52
2019-05-09T06:35:04.943Z,40.60
2019-05-09T06:37:27.673Z,40.64
2019-05-09T06:39:49.176Z,40.67
2019-05-09T06:42:10.852Z,40.76
2019-05-09T06:44:32.814Z,40.77
2019-05-09T06:46:54.700Z,40.81
2019-05-09T06:49:27.575Z,40.85
2019-05-09T06:51:40.543Z,40.86
2019-05-09T06:54:02.410Z,40.89
2019-05-09T06:56:23.898Z,40.89
2019-05-09T06:58:47.962Z,40.90
2019-05-09T07:01:09.459Z,40.93
2019-05-09T07:03:31.516Z,40.97
2019-05-09T07:05:52.784Z,41.02
2019-05-09T07:08:14.682Z,41.03
2019-05-09T07:10:37.749Z,41.09
2019-05-09T07:12:59.285Z,41.11
2019-05-09T07:15:21.416Z,41.11
2019-05-09T07:17:43.119Z,41.05
2019-05-09T07:20:04.787Z,41.02
2019-05-09T07:22:28.045Z,40.97
2019-05-09T07:24:50.411Z,40.93
2019-05-09T07:27:12.098Z,40.88
2019-05-09T07:29:33.876Z,40.83
2019-05-09T07:31:57.307Z,40.81
2019-05-09T07:34:19.264Z,40.78
2019-05-09T07:36:40.943Z,40.77
2019-05-09T07:39:02.655Z,40.74
2019-05-09T07:41:24.696Z,40.74
2019-05-09T07:43:47.806Z,40.71
2019-05-09T07:46:09.986Z,40.70
2019-05-09T07:48:31.976Z,40.73
2019-05-09T07:50:54.222Z,40.72
2019-05-09T07:53:17.587Z,40.69
2019-05-09T07:55:38.110Z,40.72
2019-05-09T07:57:59.948Z,40.74
2019-05-09T08:00:21.497Z,40.78
2019-05-09T08:02:43.283Z,40.78
2019-05-09T08:05:05.084Z,40.81
2019-05-09T08:07:29.101Z,40.84
2019-05-09T08:09:51.130Z,40.86
2019-05-09T08:12:12.934Z,40.88
2019-05-09T08:14:34.739Z,40.90
2019-05-09T08:16:58.104Z,40.91
2019-05-09T08:19:19.142Z,40.94
2019-05-09T08:21:40.682Z,40.96
2019-05-09T08:24:02.391Z,40.98
2019-05-09T08:26:24.078Z,41.00
2019-05-09T08:28:47.977Z,41.00
2019-05-09T08:31:09.644Z,41.04
2019-05-09T08:33:31.381Z,41.04
2019-05-09T08:35:52.854Z,41.15
2019-05-09T08:38:14.743Z,41.30
2019-05-09T08:40:38.208Z,41.46
2019-05-09T08:42:59.241Z,41.50
2019-05-09T08:45:27.548Z,41.55
2019-05-09T08:47:43.572Z,41.59
2019-05-09T08:50:07.842Z,41.63
2019-05-09T08:52:28.816Z,41.67
2019-05-09T08:54:51.303Z,41.72
2019-05-09T08:57:13.024Z,41.69
2019-05-09T08:59:35.066Z,41.71
2019-05-09T09:02:12.188Z,41.74
2019-05-09T09:04:20.663Z,41.81
2019-05-09T09:06:42.579Z,41.81
2019-05-09T09:09:04.220Z,41.75
2019-05-09T09:11:27.881Z,41.66
2019-05-09T09:13:48.892Z,41.61
2019-05-09T09:16:18.521Z,41.51
2019-05-09T09:18:33.909Z,41.42
2019-05-09T09:20:55.414Z,41.34
2019-05-09T09:23:18.151Z,41.29
2019-05-09T09:25:39.586Z,41.26
2019-05-09T09:28:01.379Z,41.26
2019-05-09T09:30:25.115Z,41.19
2019-05-09T09:32:47.898Z,41.28
2019-05-09T09:35:09.362Z,41.31
2019-05-09T09:37:45.059Z,41.31
2019-05-09T09:39:54.425Z,41.30
2019-05-09T09:42:19.742Z,41.32
2019-05-09T09:44:39.861Z,41.33
2019-05-09T09:47:01.571Z,41.33
2019-05-09T09:49:23.499Z,41.31
2019-05-09T09:51:45.775Z,41.33
2019-05-09T09:54:08.816Z,41.36
2019-05-09T09:56:30.999Z,41.37
2019-05-09T09:58:52.778Z,41.37
2019-05-09T10:01:14.340Z,41.34
2019-05-09T10:03:35.751Z,41.36
2019-05-09T10:05:57.851Z,41.34
2019-05-09T10:08:18.952Z,41.34
2019-05-09T10:10:41.256Z,41.37
2019-05-09T10:13:04.323Z,41.37
2019-05-09T10:15:28.102Z,41.35
2019-05-09T10:17:49.204Z,41.34
2019-05-09T10:20:10.867Z,41.33
2019-05-09T10:22:32.460Z,41.35
2019-05-09T10:24:54.505Z,41.42
2019-05-09T10:27:18.303Z,41.45
2019-05-09T10:29:39.218Z,41.43
2019-05-09T10:32:00.410Z,41.47
2019-05-09T10:34:22.052Z,41.47
2019-05-09T10:36:43.934Z,41.50
2019-05-09T10:39:08.316Z,41.53
2019-05-09T10:41:29.642Z,41.52
2019-05-09T10:43:51.172Z,41.56
2019-05-09T10:46:15.481Z,41.54
2019-05-09T10:48:38.502Z,41.61
2019-05-09T10:51:03.873Z,41.62
2019-05-09T10:53:22.463Z,41.63
2019-05-09T10:55:44.503Z,41.66
2019-05-09T10:58:08.125Z,41.66
2019-05-09T11:00:29.042Z,41.72
2019-05-09T11:02:50.841Z,41.79
2019-05-09T11:05:12.545Z,41.74
2019-05-09T11:07:34.798Z,41.74
2019-05-09T11:09:58.808Z,41.68
2019-05-09T11:12:19.699Z,41.62
2019-05-09T11:14:41.051Z,41.48
2019-05-09T11:17:10.945Z,41.30
2019-05-09T11:19:28.642Z,41.26
2019-05-09T11:21:49.565Z,41.20
2019-05-09T11:24:10.919Z,41.15
2019-05-09T11:26:33.019Z,41.15
2019-05-09T11:28:54.212Z,41.15
2019-05-09T11:31:18.336Z,41.16
2019-05-09T11:33:38.720Z,41.13
2019-05-09T11:36:00.326Z,41.15
2019-05-09T11:38:32.488Z,41.14
2019-05-09T11:40:44.996Z,41.14
2019-05-09T11:43:06.109Z,41.16
2019-05-09T11:45:28.637Z,41.16
2019-05-09T11:47:50.290Z,41.11
2019-05-09T11:50:11.509Z,41.02
2019-05-09T11:52:33.168Z,41.06
2019-05-09T11:54:54.534Z,41.10
2019-05-09T11:57:18.928Z,41.12
2019-05-09T11:59:39.374Z,41.16
2019-05-09T12:02:01.179Z,41.18
2019-05-09T12:04:23.498Z,41.18
2019-05-09T12:06:44.953Z,41.20
2019-05-09T12:09:08.649Z,41.20
2019-05-09T12:11:28.895Z,41.19
2019-05-09T12:13:51.185Z,41.17
2019-05-09T12:16:12.596Z,41.19
2019-05-09T12:18:37.671Z,41.20
2019-05-09T12:20:58.340Z,41.20
2019-05-09T12:23:20.118Z,41.20
2019-05-09T12:25:41.619Z,41.21
2019-05-09T12:28:03.595Z,41.22
2019-05-09T12:30:25.343Z,41.26
2019-05-09T12:32:47.373Z,41.23
2019-05-09T12:35:09.194Z,41.36
2019-05-09T12:37:30.771Z,41.50
2019-05-09T12:39:52.797Z,41.59
2019-05-09T12:42:14.604Z,41.62
2019-05-09T12:44:36.419Z,41.66
2019-05-09T12:46:58.682Z,41.62
2019-05-09T12:49:20.329Z,41.68
2019-05-09T12:51:42.150Z,41.64
2019-05-09T12:54:03.869Z,41.67
2019-05-09T12:56:28.187Z,41.68
2019-05-09T12:58:48.617Z,41.81
2019-05-09T13:01:10.489Z,41.71
2019-05-09T13:03:32.040Z,41.92
2019-05-09T13:05:53.996Z,41.82
2019-05-09T13:08:15.089Z,41.83
2019-05-09T13:10:37.882Z,41.87
2019-05-09T13:12:59.999Z,41.98
2019-05-09T13:15:22.187Z,41.98
2019-05-09T13:17:43.741Z,42.02
2019-05-09T13:20:07.807Z,42.06
2019-05-09T13:22:28.510Z,42.08
2019-05-09T13:24:50.155Z,42.11
2019-05-09T13:27:11.705Z,42.08
2019-05-09T13:29:34.055Z,42.07
2019-05-09T13:31:57.717Z,41.99
2019-05-09T13:34:19.203Z,41.92
2019-05-09T13:36:40.711Z,41.82
2019-05-09T13:39:05.006Z,41.71
2019-05-09T13:41:26.772Z,41.65
2019-05-09T13:43:57.597Z,41.58
2019-05-09T13:46:10.718Z,41.68
2019-05-09T13:48:57.169Z,41.62
2019-05-09T13:50:57.695Z,41.66
2019-05-09T13:53:19.241Z,41.61
2019-05-09T13:55:41.409Z,41.67
2019-05-09T13:58:03.276Z,41.67
2019-05-09T14:00:24.547Z,41.66
2019-05-09T14:02:48.958Z,41.56
2019-05-09T14:05:09.544Z,41.57
2019-05-09T14:07:30.914Z,41.67
2019-05-09T14:09:52.865Z,41.73
2019-05-09T14:12:14.697Z,41.72
2019-05-09T14:14:37.968Z,41.17
2019-05-09T14:16:59.494Z,41.35
2019-05-09T14:19:39.901Z,41.55
2019-05-09T14:21:44.822Z,41.62
2019-05-09T14:24:14.993Z,41.72
2019-05-09T14:26:29.509Z,41.80
2019-05-09T14:28:51.340Z,41.81
2019-05-09T14:31:12.987Z,41.84
2019-05-09T14:33:34.971Z,41.87
2019-05-09T14:35:56.590Z,41.90
2019-05-09T14:38:18.611Z,41.89
2019-05-09T14:40:40.425Z,41.94
2019-05-09T14:43:02.313Z,41.93
2019-05-09T14:45:23.922Z,41.96
2019-05-09T14:47:45.761Z,41.99
2019-05-09T14:50:09.948Z,41.98
2019-05-09T14:52:32.282Z,42.02
2019-05-09T14:54:54.494Z,42.02
2019-05-09T14:57:17.517Z,42.00
2019-05-09T14:59:40.009Z,42.03
2019-05-09T15:02:01.066Z,42.03
2019-05-09T15:04:22.867Z,42.04
2019-05-09T15:06:44.780Z,42.06
2019-05-09T15:09:08.282Z,42.13
2019-05-09T15:11:30.588Z,42.12
2019-05-09T15:13:52.330Z,42.15
2019-05-09T15:16:14.325Z,42.15
2019-05-09T15:18:35.544Z,42.16
2019-05-09T15:20:58.141Z,42.11
2019-05-09T15:23:19.870Z,42.12
2019-05-09T15:25:41.505Z,42.05
2019-05-09T15:28:03.128Z,41.98
2019-05-09T15:30:24.342Z,41.99
2019-05-09T15:32:47.443Z,41.95
2019-05-09T15:35:09.858Z,42.10
2019-05-09T15:37:31.514Z,42.01
2019-05-09T15:39:53.559Z,41.99
2019-05-09T15:42:14.840Z,41.95
2019-05-09T15:44:36.558Z,41.86
2019-05-09T15:46:58.628Z,41.73
2019-05-09T15:49:19.838Z,41.66
2019-05-09T15:51:41.675Z,41.65
2019-05-09T15:54:05.150Z,41.58
2019-05-09T15:56:28.801Z,41.53
2019-05-09T15:58:50.083Z,41.49
2019-05-09T16:01:11.926Z,41.49
2019-05-09T16:03:33.588Z,41.47
2019-05-09T16:05:55.463Z,41.46
2019-05-09T16:08:18.703Z,41.48
2019-05-09T16:10:40.967Z,41.51
2019-05-09T16:13:03.555Z,41.47
2019-05-09T16:15:24.891Z,41.50
2019-05-09T16:17:48.501Z,41.50
2019-05-09T16:20:10.533Z,41.29
2019-05-09T16:22:32.185Z,41.39
2019-05-09T16:24:54.224Z,41.34
2019-05-09T16:27:16.408Z,41.35
2019-05-09T16:29:38.255Z,41.41
2019-05-09T16:32:00.338Z,41.29
2019-05-09T16:34:22.083Z,41.12
2019-05-09T16:36:43.648Z,40.88
2019-05-09T16:39:06.899Z,41.19
2019-05-09T16:41:28.254Z,40.92
2019-05-09T16:43:49.713Z,40.93
2019-05-09T16:46:11.716Z,40.95
2019-05-09T16:48:32.902Z,41.21
2019-05-09T16:51:04.383Z,41.34
2019-05-09T16:53:18.566Z,41.25
2019-05-09T16:55:39.897Z,41.40
2019-05-09T16:58:01.390Z,41.48
2019-05-09T17:00:22.736Z,41.46
2019-05-09T17:02:44.209Z,41.49
2019-05-09T17:05:08.343Z,41.57
2019-05-09T17:07:29.423Z,41.57
2019-05-09T17:09:51.086Z,41.62
2019-05-09T17:12:13.176Z,41.64
2019-05-09T17:14:35.201Z,41.67
2019-05-09T17:16:59.621Z,41.67
2019-05-09T17:19:19.693Z,41.71
2019-05-09T17:21:41.365Z,41.72
2019-05-09T17:24:03.227Z,41.74
2019-05-09T17:26:24.966Z,41.71
2019-05-09T17:28:48.486Z,41.66
2019-05-09T17:31:09.306Z,41.65
2019-05-09T17:33:30.711Z,41.62
2019-05-09T17:35:52.937Z,41.51
2019-05-09T17:38:14.058Z,41.49
2019-05-09T17:40:38.311Z,41.49
2019-05-09T17:42:59.223Z,41.48
2019-05-09T17:45:20.370Z,41.49
2019-05-09T17:47:41.623Z,41.50
2019-05-09T17:50:03.094Z,41.50
2019-05-09T17:52:24.900Z,41.50
2019-05-09T17:54:48.586Z,41.50
2019-05-09T17:57:10.745Z,41.49
2019-05-09T17:59:32.643Z,41.50
2019-05-09T18:01:54.236Z,41.50
2019-05-09T18:04:17.873Z,41.51
2019-05-09T18:06:38.486Z,41.54
2019-05-09T18:08:59.801Z,41.55
2019-05-09T18:11:21.494Z,41.55
2019-05-09T18:13:42.460Z,41.57
2019-05-09T18:16:03.890Z,41.59
2019-05-09T18:18:28.174Z,41.60
2019-05-09T18:20:48.051Z,41.64
2019-05-09T18:23:09.691Z,41.64
2019-05-09T18:25:31.668Z,41.59
2019-05-09T18:27:52.853Z,41.58
2019-05-09T18:30:14.802Z,41.61
2019-05-09T18:32:38.333Z,41.63
2019-05-09T18:35:00.409Z,41.75
2019-05-09T18:37:21.684Z,41.81
2019-05-09T18:39:43.888Z,41.91
2019-05-09T18:42:08.492Z,41.87
2019-05-09T18:44:29.015Z,41.89
2019-05-09T18:46:50.957Z,41.81
2019-05-09T18:49:12.640Z,42.01
2019-05-09T18:51:34.628Z,42.10
2019-05-09T18:53:56.119Z,42.18
2019-05-09T18:56:18.268Z,42.19
2019-05-09T18:58:40.101Z,42.29
2019-05-09T19:01:01.706Z,42.49
2019-05-09T19:03:23.305Z,42.73
2019-05-09T19:05:44.933Z,42.78
2019-05-09T19:08:06.352Z,42.80
2019-05-09T19:10:27.699Z,42.89
2019-05-09T19:12:49.250Z,42.89
2019-05-09T19:15:10.879Z,43.01
2019-05-09T19:17:33.265Z,43.06
2019-05-09T19:19:55.117Z,43.02
2019-05-09T19:22:22.453Z,42.98
2019-05-09T19:24:40.267Z,42.95
2019-05-09T19:27:02.047Z,43.12
2019-05-09T19:29:24.354Z,43.27
2019-05-09T19:31:46.412Z,43.29
2019-05-09T19:34:07.798Z,43.34
2019-05-09T19:36:29.805Z,43.38
2019-05-09T19:38:51.375Z,43.35
2019-05-09T19:41:12.818Z,43.26
2019-05-09T19:43:34.993Z,43.30
2019-05-09T19:45:57.053Z,43.17
2019-05-09T19:48:18.955Z,43.14
2019-05-09T19:50:40.184Z,43.17
2019-05-09T19:53:02.172Z,43.01
2019-05-09T19:55:24.086Z,42.82
2019-05-09T19:57:46.056Z,42.80
2019-05-09T20:00:07.824Z,42.74
2019-05-09T20:02:29.445Z,42.77
2019-05-09T20:04:54.129Z,42.67
2019-05-09T20:07:16.445Z,42.82
2019-05-09T20:09:38.235Z,42.91
2019-05-09T20:12:00.439Z,42.93
2019-05-09T20:14:22.847Z,43.01
2019-05-09T20:16:44.052Z,43.32
2019-05-09T20:19:06.238Z,43.11
2019-05-09T20:21:27.485Z,43.66
2019-05-09T20:23:49.622Z,43.76
2019-05-09T20:26:13.782Z,43.86
2019-05-09T20:28:36.033Z,44.24
2019-05-09T20:30:57.971Z,44.41
2019-05-09T20:33:19.576Z,44.57
2019-05-09T20:35:41.113Z,44.80
2019-05-09T20:38:03.875Z,44.86
2019-05-09T20:40:25.349Z,45.06
2019-05-09T20:42:46.883Z,45.22
2019-05-09T20:45:08.534Z,45.36
2019-05-09T20:47:30.419Z,45.62
2019-05-09T20:49:52.349Z,45.51
2019-05-09T20:52:15.957Z,45.55
2019-05-09T20:54:37.768Z,45.12
2019-05-09T20:56:59.824Z,45.24
2019-05-09T20:59:21.260Z,45.27
2019-05-09T21:01:42.759Z,45.20
2019-05-09T21:04:05.095Z,45.13
2019-05-09T21:06:26.113Z,45.24
2019-05-09T21:08:47.870Z,45.24
2019-05-09T21:11:08.975Z,45.19
2019-05-09T21:13:30.580Z,45.19
2019-05-09T21:15:52.451Z,45.12
2019-05-09T21:18:14.332Z,45.06
2019-05-09T21:20:35.830Z,45.02
2019-05-09T21:22:57.954Z,44.99
2019-05-09T21:25:19.414Z,44.93
2019-05-09T21:27:40.816Z,44.91
2019-05-09T21:30:02.272Z,44.83
2019-05-09T21:32:24.224Z,44.87
2019-05-09T21:34:46.706Z,45.18
2019-05-09T21:37:08.271Z,45.33
2019-05-09T21:39:30.352Z,45.33
2019-05-09T21:41:52.701Z,45.62
2019-05-09T21:44:13.962Z,45.78
2019-05-09T21:46:35.376Z,45.66
2019-05-09T21:48:57.269Z,45.54
2019-05-09T21:51:18.875Z,45.48
2019-05-09T21:53:41.442Z,45.27
2019-05-09T21:56:03.321Z,45.43
2019-05-09T21:58:25.476Z,45.33
2019-05-09T22:00:49.828Z,45.21
2019-05-09T22:03:11.155Z,45.24
2019-05-09T22:05:32.939Z,45.21
2019-05-09T22:07:54.500Z,45.17
2019-05-09T22:10:16.055Z,45.15
2019-05-09T22:12:37.831Z,45.18
2019-05-09T22:14:59.375Z,45.17
2019-05-09T22:17:21.100Z,45.15
2019-05-09T22:19:43.061Z,45.06
2019-05-09T22:22:04.974Z,45.09
2019-05-09T22:24:27.082Z,45.05
2019-05-09T22:26:48.207Z,45.11
2019-05-09T22:29:10.122Z,45.14
2019-05-09T22:31:31.765Z,45.11
2019-05-09T22:33:53.814Z,45.05
2019-05-09T22:36:15.497Z,44.93
2019-05-09T22:38:37.022Z,44.84
2019-05-09T22:40:58.441Z,44.88
2019-05-09T22:43:20.304Z,44.95
2019-05-09T22:45:41.509Z,44.96
2019-05-09T22:48:03.349Z,44.96
2019-05-09T22:50:24.817Z,44.94
2019-05-09T22:52:46.963Z,44.91
2019-05-09T22:55:08.823Z,44.96
2019-05-09T22:57:30.817Z,44.89
2019-05-09T22:59:52.181Z,44.91
2019-05-09T23:02:13.577Z,44.90
2019-05-09T23:04:34.879Z,44.92
2019-05-09T23:06:56.230Z,44.94
2019-05-09T23:09:18.208Z,44.94
2019-05-09T23:11:39.575Z,44.99
2019-05-09T23:14:01.354Z,44.94
2019-05-09T23:16:23.078Z,44.94
2019-05-09T23:18:45.012Z,45.17
2019-05-09T23:21:06.811Z,45.16
2019-05-09T23:23:28.761Z,45.00
2019-05-09T23:25:50.762Z,44.94
2019-05-09T23:28:12.408Z,45.00
2019-05-09T23:30:34.106Z,45.00
2019-05-09T23:32:55.883Z,45.02
2019-05-09T23:35:17.172Z,45.03
2019-05-09T23:37:39.074Z,45.04
2019-05-09T23:40:00.505Z,45.06
2019-05-09T23:42:22.399Z,45.06
2019-05-09T23:44:44.369Z,45.04
2019-05-09T23:47:05.694Z,45.03
2019-05-09T23:49:27.698Z,45.00
2019-05-09T23:51:49.859Z,44.99
2019-05-09T23:54:11.585Z,45.00
2019-05-09T23:56:34.101Z,44.96
2019-05-09T23:58:55.810Z,44.92
